createdAt,value
2019-01-20T00:00:38.144Z,7.28
2019-01-20T00:03:09.507Z,9.98
2019-01-20T00:05:41.484Z,10.40
2019-01-20T00:08:13.406Z,9.08
2019-01-20T00:10:45.267Z,10.00
2019-01-20T00:13:17.450Z,9.30
2019-01-20T00:15:49.342Z,10.68
2019-01-20T00:18:20.777Z,9.40
2019-01-20T00:20:52.754Z,9.73
2019-01-20T00:23:24.337Z,8.35
2019-01-20T00:25:56.228Z,7.35
2019-01-20T00:28:28.159Z,6.97
2019-01-20T00:30:59.183Z,6.42
2019-01-20T00:33:31.558Z,6.37
2019-01-20T00:36:03.155Z,6.47
2019-01-20T00:38:34.495Z,6.05
2019-01-20T00:41:06.249Z,5.25
2019-01-20T00:43:38.438Z,5.40
2019-01-20T00:46:10.086Z,8.15
2019-01-20T00:48:41.883Z,7.83
2019-01-20T00:51:13.335Z,10.30
2019-01-20T00:53:45.043Z,9.48
2019-01-20T00:56:17.114Z,8.45
2019-01-20T00:58:48.773Z,8.20
2019-01-20T01:01:20.805Z,7.50
2019-01-20T01:03:51.917Z,7.58
2019-01-20T01:06:23.946Z,7.90
2019-01-20T01:08:55.580Z,7.47
2019-01-20T01:11:31.549Z,7.70
2019-01-20T01:14:00.571Z,7.75
2019-01-20T01:16:31.863Z,8.20
2019-01-20T01:19:03.500Z,7.95
2019-01-20T01:21:35.400Z,7.47
2019-01-20T01:24:06.738Z,7.37
2019-01-20T01:26:38.095Z,7.45
2019-01-20T01:29:09.956Z,7.75
2019-01-20T01:31:41.357Z,6.72
2019-01-20T01:34:12.641Z,7.28
2019-01-20T01:36:43.691Z,6.25
2019-01-20T01:39:15.306Z,6.92
2019-01-20T01:41:46.702Z,6.83
2019-01-20T01:44:18.054Z,5.85
2019-01-20T01:46:49.398Z,5.65
2019-01-20T01:49:21.568Z,6.00
2019-01-20T01:51:53.630Z,5.75
2019-01-20T01:54:25.705Z,6.00
2019-01-20T01:56:57.052Z,5.45
2019-01-20T01:59:28.767Z,5.97
2019-01-20T02:02:00.192Z,6.00
2019-01-20T02:04:31.883Z,5.10
2019-01-20T02:07:03.457Z,5.33
2019-01-20T02:09:35.405Z,6.17
2019-01-20T02:12:07.410Z,5.75
2019-01-20T02:14:39.081Z,5.78
2019-01-20T02:17:10.429Z,5.33
2019-01-20T02:19:42.200Z,5.60
2019-01-20T02:22:13.920Z,5.28
2019-01-20T02:24:45.525Z,5.30
2019-01-20T02:27:17.268Z,5.75
2019-01-20T02:29:48.950Z,5.25
2019-01-20T02:32:20.870Z,5.30
2019-01-20T02:34:53.233Z,5.35
2019-01-20T02:37:25.315Z,4.97
2019-01-20T02:39:56.667Z,4.72
2019-01-20T02:42:28.660Z,4.00
2019-01-20T02:45:04.722Z,4.40
2019-01-20T02:47:36.570Z,3.47
2019-01-20T02:50:10.407Z,4.40
2019-01-20T02:52:41.707Z,4.35
2019-01-20T02:55:13.193Z,4.47
2019-01-20T02:57:45.117Z,4.20
2019-01-20T03:00:24.654Z,4.65
2019-01-20T03:02:56.910Z,4.70
2019-01-20T03:05:30.131Z,4.53
2019-01-20T03:08:01.155Z,5.35
2019-01-20T03:10:32.441Z,5.58
2019-01-20T03:13:04.054Z,4.92
2019-01-20T03:15:35.483Z,5.25
2019-01-20T03:18:07.623Z,5.00
2019-01-20T03:20:38.630Z,4.90
2019-01-20T03:23:10.623Z,5.37
2019-01-20T03:25:42.916Z,3.77
2019-01-20T03:28:14.984Z,3.50
2019-01-20T03:30:46.978Z,3.83
2019-01-20T03:33:19.097Z,3.75
2019-01-20T03:35:50.713Z,3.98
2019-01-20T03:38:22.344Z,3.92
2019-01-20T03:40:54.541Z,4.70
2019-01-20T03:43:26.185Z,4.55
2019-01-20T03:45:58.459Z,5.00
2019-01-20T03:48:30.583Z,4.22
2019-01-20T03:51:01.640Z,3.62
2019-01-20T03:53:32.666Z,3.83
2019-01-20T03:56:04.225Z,3.62
2019-01-20T03:58:36.501Z,3.85
2019-01-20T04:01:08.146Z,3.70
2019-01-20T04:03:39.736Z,4.12
2019-01-20T04:06:11.353Z,4.45
2019-01-20T04:08:42.738Z,4.72
2019-01-20T04:11:15.112Z,4.17
2019-01-20T04:13:47.152Z,3.98
2019-01-20T04:16:18.491Z,4.10
2019-01-20T04:18:50.067Z,4.00
2019-01-20T04:21:21.679Z,3.92
2019-01-20T04:23:53.809Z,3.10
2019-01-20T04:26:25.109Z,3.02
2019-01-20T04:28:57.154Z,3.20
2019-01-20T04:31:28.824Z,3.42
2019-01-20T04:34:00.395Z,4.22
2019-01-20T04:36:32.475Z,3.62
2019-01-20T04:39:05.668Z,3.22
2019-01-20T04:41:37.751Z,3.42
2019-01-20T04:44:09.154Z,2.77
2019-01-20T04:46:40.494Z,3.17
2019-01-20T04:49:11.759Z,2.67
2019-01-20T04:51:43.028Z,2.42
2019-01-20T04:54:14.919Z,3.02
2019-01-20T04:56:46.499Z,2.40
2019-01-20T04:59:18.063Z,2.35
2019-01-20T05:01:49.090Z,2.50
2019-01-20T05:04:20.672Z,2.47
2019-01-20T05:06:52.330Z,1.98
2019-01-20T05:09:23.967Z,2.05
2019-01-20T05:11:55.756Z,3.72
2019-01-20T05:14:27.681Z,3.12
2019-01-20T05:16:59.250Z,2.90
2019-01-20T05:19:30.500Z,2.92
2019-01-20T05:22:01.987Z,3.27
2019-01-20T05:24:33.250Z,2.98
2019-01-20T05:27:05.303Z,2.75
2019-01-20T05:29:36.893Z,3.40
2019-01-20T05:32:07.981Z,2.83
2019-01-20T05:34:39.918Z,2.80
2019-01-20T05:37:11.544Z,3.42
2019-01-20T05:39:43.433Z,2.83
2019-01-20T05:42:15.468Z,3.25
2019-01-20T05:44:47.734Z,3.50
2019-01-20T05:47:19.388Z,2.70
2019-01-20T05:49:50.962Z,3.00
2019-01-20T05:52:22.038Z,2.92
2019-01-20T05:54:53.341Z,3.55
2019-01-20T05:57:24.675Z,3.10
2019-01-20T05:59:57.598Z,2.52
2019-01-20T06:02:29.035Z,2.50
2019-01-20T06:05:01.229Z,3.08
2019-01-20T06:07:33.387Z,2.65
2019-01-20T06:10:05.400Z,2.85
2019-01-20T06:12:37.195Z,2.75
2019-01-20T06:15:13.286Z,3.10
2019-01-20T06:17:44.823Z,2.62
2019-01-20T06:20:17.273Z,2.85
2019-01-20T06:22:48.899Z,2.83
2019-01-20T06:25:20.505Z,2.90
2019-01-20T06:27:51.915Z,3.08
2019-01-20T06:30:30.183Z,3.05
2019-01-20T06:33:01.781Z,2.58
2019-01-20T06:35:33.348Z,3.08
2019-01-20T06:38:05.367Z,3.05
2019-01-20T06:40:36.668Z,2.70
2019-01-20T06:43:08.031Z,2.80
2019-01-20T06:45:39.630Z,2.52
2019-01-20T06:48:11.436Z,3.08
2019-01-20T06:50:42.787Z,3.00
2019-01-20T06:53:13.831Z,4.40
2019-01-20T06:55:46.098Z,6.05
2019-01-20T06:58:18.401Z,5.60
2019-01-20T07:00:50.315Z,5.47
2019-01-20T07:03:22.194Z,5.28
2019-01-20T07:05:53.926Z,6.95
2019-01-20T07:08:26.039Z,7.62
2019-01-20T07:10:58.415Z,7.67
2019-01-20T07:13:30.383Z,6.97
2019-01-20T07:16:01.801Z,8.15
2019-01-20T07:18:33.818Z,10.32
2019-01-20T07:21:05.592Z,11.97
2019-01-20T07:23:37.516Z,15.45
2019-01-20T07:26:09.389Z,12.70
2019-01-20T07:28:41.079Z,15.80
2019-01-20T07:31:12.591Z,16.60
2019-01-20T07:33:44.506Z,15.65
2019-01-20T07:36:15.843Z,12.78
2019-01-20T07:38:47.687Z,9.53
2019-01-20T07:41:18.951Z,8.38
2019-01-20T07:43:50.294Z,6.92
2019-01-20T07:46:21.939Z,6.28
2019-01-20T07:48:53.255Z,6.00
2019-01-20T07:51:24.660Z,5.78
2019-01-20T07:53:56.279Z,5.45
2019-01-20T07:56:27.544Z,6.55
2019-01-20T07:58:59.179Z,7.35
2019-01-20T08:01:30.994Z,7.67
2019-01-20T08:04:02.314Z,7.40
2019-01-20T08:06:33.916Z,8.05
2019-01-20T08:09:08.443Z,8.85
2019-01-20T08:11:40.839Z,8.45
2019-01-20T08:14:12.672Z,7.65
2019-01-20T08:16:44.073Z,8.13
2019-01-20T08:19:15.745Z,8.43
2019-01-20T08:21:47.336Z,8.28
2019-01-20T08:24:18.912Z,8.63
2019-01-20T08:26:50.329Z,8.58
2019-01-20T08:29:22.291Z,8.58
2019-01-20T08:31:53.915Z,8.20
2019-01-20T08:34:25.530Z,10.13
2019-01-20T08:36:57.183Z,11.78
2019-01-20T08:39:28.519Z,14.33
2019-01-20T08:42:00.289Z,14.63
2019-01-20T08:44:36.676Z,12.88
2019-01-20T08:47:40.350Z,12.10
2019-01-20T08:50:16.076Z,12.03
2019-01-20T08:52:48.302Z,12.10
2019-01-20T08:55:20.262Z,11.45
2019-01-20T08:57:52.118Z,12.63
2019-01-20T09:00:23.793Z,12.18
2019-01-20T09:02:55.883Z,12.00
2019-01-20T09:05:27.367Z,12.78
2019-01-20T09:07:59.052Z,12.82
2019-01-20T09:10:30.677Z,13.15
2019-01-20T09:13:04.274Z,14.87
2019-01-20T09:15:35.300Z,11.22
2019-01-20T09:18:08.209Z,10.03
2019-01-20T09:20:40.575Z,10.38
2019-01-20T09:23:16.119Z,10.55
2019-01-20T09:25:47.875Z,13.08
2019-01-20T09:28:19.127Z,13.93
2019-01-20T09:30:50.443Z,14.50
2019-01-20T09:33:24.751Z,13.38
2019-01-20T09:35:54.885Z,13.58
2019-01-20T09:38:26.418Z,12.93
2019-01-20T09:41:05.244Z,11.38
2019-01-20T09:43:36.689Z,12.88
2019-01-20T09:46:09.080Z,11.35
2019-01-20T09:48:41.050Z,11.05
2019-01-20T09:51:12.627Z,11.60
2019-01-20T09:53:43.757Z,11.30
2019-01-20T09:56:15.174Z,10.80
2019-01-20T09:58:47.408Z,10.60
2019-01-20T10:01:18.478Z,12.07
2019-01-20T10:03:50.474Z,10.90
2019-01-20T10:06:22.168Z,11.40
2019-01-20T10:08:53.716Z,10.82
2019-01-20T10:11:24.748Z,11.53
2019-01-20T10:13:55.878Z,12.00
2019-01-20T10:16:27.865Z,13.50
2019-01-20T10:18:59.677Z,13.15
2019-01-20T10:21:31.494Z,12.78
2019-01-20T10:24:04.614Z,11.45
2019-01-20T10:26:37.999Z,12.30
2019-01-20T10:29:10.300Z,10.72
2019-01-20T10:31:42.216Z,9.55
2019-01-20T10:34:14.354Z,8.33
2019-01-20T10:36:45.546Z,8.50
2019-01-20T10:39:18.278Z,6.92
2019-01-20T10:41:49.649Z,8.13
2019-01-20T10:44:21.320Z,8.20
2019-01-20T10:46:52.617Z,8.55
2019-01-20T10:49:29.154Z,8.85
2019-01-20T10:52:02.605Z,9.13
2019-01-20T10:54:34.493Z,8.93
2019-01-20T10:57:05.974Z,8.83
2019-01-20T10:59:37.633Z,9.75
2019-01-20T11:02:09.062Z,10.60
2019-01-20T11:04:40.164Z,9.98
2019-01-20T11:07:12.281Z,10.05
2019-01-20T11:09:43.963Z,9.05
2019-01-20T11:12:15.391Z,9.00
2019-01-20T11:14:46.738Z,8.60
2019-01-20T11:17:18.086Z,11.25
2019-01-20T11:19:49.757Z,9.55
2019-01-20T11:22:21.247Z,8.68
2019-01-20T11:24:52.809Z,8.70
2019-01-20T11:27:25.085Z,7.75
2019-01-20T11:29:56.245Z,8.78
2019-01-20T11:32:27.978Z,9.28
2019-01-20T11:34:59.582Z,8.38
2019-01-20T11:37:31.133Z,8.78
2019-01-20T11:40:02.103Z,9.38
2019-01-20T11:42:34.177Z,10.15
2019-01-20T11:45:07.539Z,10.25
2019-01-20T11:47:41.995Z,12.13
2019-01-20T11:50:12.324Z,11.65
2019-01-20T11:52:43.668Z,11.65
2019-01-20T11:55:17.118Z,10.48
2019-01-20T11:57:48.954Z,12.95
2019-01-20T12:00:30.789Z,12.00
2019-01-20T12:03:02.098Z,10.78
2019-01-20T12:05:35.239Z,11.03
2019-01-20T12:08:08.526Z,11.28
2019-01-20T12:10:40.322Z,11.73
2019-01-20T12:13:15.222Z,10.63
2019-01-20T12:15:47.006Z,10.88
2019-01-20T12:18:18.697Z,10.20
2019-01-20T12:20:50.383Z,10.35
2019-01-20T12:23:22.007Z,11.00
2019-01-20T12:25:53.895Z,9.90
2019-01-20T12:28:25.253Z,10.25
2019-01-20T12:30:56.538Z,10.15
2019-01-20T12:33:28.801Z,10.25
2019-01-20T12:36:00.567Z,9.53
2019-01-20T12:38:32.235Z,9.33
2019-01-20T12:41:03.868Z,9.85
2019-01-20T12:43:35.301Z,10.05
2019-01-20T12:46:06.349Z,10.75
2019-01-20T12:48:38.037Z,11.00
2019-01-20T12:51:12.472Z,10.35
2019-01-20T12:53:44.592Z,10.90
2019-01-20T12:56:16.161Z,11.53
2019-01-20T12:58:53.112Z,10.93
2019-01-20T13:01:26.320Z,11.78
2019-01-20T13:03:58.514Z,12.05
2019-01-20T13:06:29.896Z,12.35
2019-01-20T13:09:01.749Z,13.13
2019-01-20T13:11:35.284Z,14.75
2019-01-20T13:14:06.993Z,14.70
2019-01-20T13:16:38.743Z,14.80
2019-01-20T13:19:10.265Z,13.72
2019-01-20T13:21:42.379Z,13.98
2019-01-20T13:24:14.857Z,15.25
2019-01-20T13:26:46.715Z,15.25
2019-01-20T13:29:19.040Z,14.53
2019-01-20T13:31:51.041Z,15.63
2019-01-20T13:34:22.379Z,15.85
2019-01-20T13:36:54.239Z,14.95
2019-01-20T13:39:25.591Z,15.38
2019-01-20T13:41:57.756Z,14.85
2019-01-20T13:44:29.750Z,15.40
2019-01-20T13:47:00.764Z,16.65
2019-01-20T13:49:32.379Z,15.80
2019-01-20T13:52:03.398Z,16.65
2019-01-20T13:54:35.710Z,15.63
2019-01-20T13:57:07.491Z,17.35
2019-01-20T13:59:39.118Z,18.10
2019-01-20T14:02:10.175Z,17.37
2019-01-20T14:04:41.809Z,17.73
2019-01-20T14:07:13.769Z,19.07
2019-01-20T14:09:45.489Z,19.05
2019-01-20T14:12:17.572Z,21.62
2019-01-20T14:14:53.828Z,20.25
2019-01-20T14:17:23.583Z,19.77
2019-01-20T14:19:54.997Z,20.65
2019-01-20T14:22:26.442Z,20.77
2019-01-20T14:24:57.899Z,20.55
2019-01-20T14:27:29.058Z,21.40
2019-01-20T14:30:00.511Z,22.00
2019-01-20T14:32:32.574Z,21.15
2019-01-20T14:35:05.181Z,21.80
2019-01-20T14:37:36.456Z,23.07
2019-01-20T14:40:09.300Z,23.50
2019-01-20T14:42:40.929Z,22.62
2019-01-20T14:45:13.093Z,26.12
2019-01-20T14:47:45.263Z,25.70
2019-01-20T14:50:22.079Z,26.50
2019-01-20T14:52:53.934Z,25.12
2019-01-20T14:55:25.168Z,26.12
2019-01-20T14:57:56.401Z,26.23
2019-01-20T15:00:34.627Z,27.13
2019-01-20T15:03:06.788Z,28.25
2019-01-20T15:05:43.545Z,28.67
2019-01-20T15:08:15.387Z,27.95
2019-01-20T15:10:47.028Z,28.27
2019-01-20T15:13:18.713Z,30.10
2019-01-20T15:15:50.065Z,30.15
2019-01-20T15:18:22.115Z,28.60
2019-01-20T15:20:53.668Z,30.60
2019-01-20T15:23:25.319Z,28.47
2019-01-20T15:25:56.395Z,29.98
2019-01-20T15:28:28.345Z,30.10
2019-01-20T15:31:00.334Z,32.20
2019-01-20T15:33:31.975Z,31.70
2019-01-20T15:36:03.048Z,33.13
2019-01-20T15:38:34.096Z,30.65
2019-01-20T15:41:05.804Z,31.15
2019-01-20T15:43:37.164Z,31.57
2019-01-20T15:46:08.521Z,31.33
2019-01-20T15:48:40.182Z,32.33
2019-01-20T15:51:11.761Z,33.95
2019-01-20T15:53:43.876Z,32.85
2019-01-20T15:56:15.723Z,32.83
2019-01-20T15:58:46.932Z,36.98
2019-01-20T16:01:18.277Z,37.15
2019-01-20T16:03:49.952Z,38.98
2019-01-20T16:06:21.587Z,35.85
2019-01-20T16:08:54.431Z,33.98
2019-01-20T16:11:26.022Z,34.50
2019-01-20T16:13:58.272Z,44.38
2019-01-20T16:16:29.528Z,36.85
2019-01-20T16:19:02.581Z,34.53
2019-01-20T16:21:34.081Z,33.48
2019-01-20T16:24:05.963Z,42.43
2019-01-20T16:26:37.514Z,54.95
2019-01-20T16:29:15.713Z,46.40
2019-01-20T16:31:47.649Z,46.20
2019-01-20T16:34:19.544Z,40.98
2019-01-20T16:36:50.909Z,36.35
2019-01-20T16:39:22.584Z,32.20
2019-01-20T16:41:54.504Z,32.33
2019-01-20T16:44:26.161Z,31.95
2019-01-20T16:46:57.819Z,29.85
2019-01-20T16:49:29.467Z,30.65
2019-01-20T16:52:01.306Z,29.42
2019-01-20T16:54:32.339Z,31.75
2019-01-20T16:57:03.848Z,32.35
2019-01-20T16:59:35.172Z,32.67
2019-01-20T17:02:06.534Z,31.42
2019-01-20T17:04:38.250Z,31.27
2019-01-20T17:07:09.862Z,29.75
2019-01-20T17:09:41.673Z,31.93
2019-01-20T17:12:13.351Z,32.65
2019-01-20T17:14:47.652Z,33.10
2019-01-20T17:17:19.514Z,32.30
2019-01-20T17:19:51.787Z,30.52
2019-01-20T17:22:22.868Z,31.15
2019-01-20T17:24:54.377Z,31.02
2019-01-20T17:27:39.353Z,37.63
2019-01-20T17:30:15.365Z,33.60
2019-01-20T17:32:47.139Z,31.77
2019-01-20T17:35:18.651Z,34.78
2019-01-20T17:37:50.261Z,34.60
2019-01-20T17:40:24.712Z,34.15
2019-01-20T17:42:57.546Z,32.93
2019-01-20T17:45:32.624Z,33.58
2019-01-20T17:48:05.070Z,33.63
2019-01-20T17:50:39.217Z,33.50
2019-01-20T17:53:12.045Z,32.90
2019-01-20T17:55:43.907Z,32.80
2019-01-20T17:58:18.369Z,33.78
2019-01-20T18:00:53.332Z,32.67
2019-01-20T18:03:24.592Z,30.95
2019-01-20T18:06:02.414Z,32.08
2019-01-20T18:08:34.458Z,36.03
2019-01-20T18:11:05.705Z,41.65
2019-01-20T18:13:37.056Z,51.55
2019-01-20T18:16:08.380Z,52.45
2019-01-20T18:18:39.896Z,42.40
2019-01-20T18:21:10.956Z,40.65
2019-01-20T18:23:42.930Z,37.00
2019-01-20T18:26:14.248Z,34.92
2019-01-20T18:28:45.559Z,36.03
2019-01-20T18:31:23.598Z,33.88
2019-01-20T18:33:57.339Z,32.93
2019-01-20T18:36:28.690Z,35.50
2019-01-20T18:39:01.285Z,38.28
2019-01-20T18:41:34.813Z,34.43
2019-01-20T18:44:06.255Z,33.38
2019-01-20T18:46:40.993Z,30.23
2019-01-20T18:49:12.406Z,31.90
2019-01-20T18:51:43.769Z,33.45
2019-01-20T18:54:14.891Z,33.60
2019-01-20T18:56:46.417Z,33.33
2019-01-20T18:59:18.140Z,32.60
2019-01-20T19:01:49.310Z,31.65
2019-01-20T19:04:20.949Z,31.93
2019-01-20T19:06:53.120Z,29.85
2019-01-20T19:09:24.749Z,29.55
2019-01-20T19:11:56.430Z,30.05
2019-01-20T19:14:28.041Z,31.57
2019-01-20T19:16:59.536Z,30.23
2019-01-20T19:19:31.145Z,30.27
2019-01-20T19:22:02.274Z,30.65
2019-01-20T19:24:33.633Z,28.80
2019-01-20T19:27:05.105Z,27.40
2019-01-20T19:29:36.726Z,28.55
2019-01-20T19:32:08.344Z,29.15
2019-01-20T19:34:40.000Z,26.48
2019-01-20T19:37:11.105Z,28.57
2019-01-20T19:39:42.448Z,29.98
2019-01-20T19:42:13.597Z,30.75
2019-01-20T19:44:45.781Z,30.62
2019-01-20T19:47:17.221Z,30.35
2019-01-20T19:49:48.836Z,29.50
2019-01-20T19:52:20.450Z,29.18
2019-01-20T19:54:51.996Z,26.48
2019-01-20T19:57:23.036Z,26.40
2019-01-20T19:59:54.684Z,27.65
2019-01-20T20:02:26.109Z,26.48
2019-01-20T20:04:57.593Z,26.95
2019-01-20T20:07:28.965Z,27.67
2019-01-20T20:10:00.541Z,28.65
2019-01-20T20:12:34.072Z,26.95
2019-01-20T20:15:07.332Z,27.90
2019-01-20T20:17:38.621Z,26.25
2019-01-20T20:20:11.205Z,24.43
2019-01-20T20:22:42.657Z,25.80
2019-01-20T20:25:16.869Z,25.55
2019-01-20T20:27:48.325Z,23.65
2019-01-20T20:30:28.743Z,23.60
2019-01-20T20:33:00.002Z,24.87
2019-01-20T20:35:31.640Z,24.55
2019-01-20T20:38:03.701Z,22.95
2019-01-20T20:40:35.562Z,21.93
2019-01-20T20:43:06.733Z,22.52
2019-01-20T20:45:38.734Z,21.65
2019-01-20T20:48:10.727Z,22.60
2019-01-20T20:50:42.732Z,21.68
2019-01-20T20:53:14.433Z,21.48
2019-01-20T20:55:46.557Z,22.00
2019-01-20T20:58:18.631Z,22.17
2019-01-20T21:00:53.864Z,22.65
2019-01-20T21:03:29.653Z,21.40
2019-01-20T21:06:01.654Z,22.70
2019-01-20T21:08:33.704Z,21.68
2019-01-20T21:11:05.494Z,22.45
2019-01-20T21:13:37.128Z,21.85
2019-01-20T21:16:08.884Z,23.40
2019-01-20T21:18:40.805Z,21.68
2019-01-20T21:21:11.838Z,21.93
2019-01-20T21:23:43.557Z,22.55
2019-01-20T21:26:14.885Z,24.20
2019-01-20T21:28:46.893Z,23.57
2019-01-20T21:31:18.203Z,21.23
2019-01-20T21:33:50.268Z,22.65
2019-01-20T21:36:21.631Z,22.87
2019-01-20T21:38:52.936Z,21.90
2019-01-20T21:41:24.604Z,23.67
2019-01-20T21:43:56.973Z,22.52
2019-01-20T21:46:28.642Z,22.85
2019-01-20T21:48:59.998Z,21.75
2019-01-20T21:51:31.346Z,19.80
2019-01-20T21:54:02.658Z,19.98
2019-01-20T21:56:34.332Z,21.45
2019-01-20T21:59:05.992Z,21.12
2019-01-20T22:01:37.941Z,19.12
2019-01-20T22:04:09.434Z,20.90
2019-01-20T22:06:41.065Z,20.77
2019-01-20T22:09:12.817Z,20.08
2019-01-20T22:11:44.468Z,19.60
2019-01-20T22:14:16.209Z,20.08
2019-01-20T22:16:52.847Z,20.17
2019-01-20T22:19:24.325Z,20.85
2019-01-20T22:21:55.677Z,19.57
2019-01-20T22:24:28.107Z,20.65
2019-01-20T22:26:59.709Z,20.02
2019-01-20T22:29:31.676Z,20.25
2019-01-20T22:32:03.986Z,20.62
2019-01-20T22:34:35.827Z,20.10
2019-01-20T22:37:07.483Z,19.27
2019-01-20T22:39:39.378Z,19.50
2019-01-20T22:42:11.435Z,20.05
2019-01-20T22:44:43.281Z,19.67
2019-01-20T22:47:15.148Z,21.45
2019-01-20T22:49:46.962Z,18.92
2019-01-20T22:52:17.995Z,20.00
2019-01-20T22:54:49.973Z,18.98
2019-01-20T22:57:22.089Z,19.35
2019-01-20T22:59:53.465Z,19.67
2019-01-20T23:02:25.130Z,19.37
2019-01-20T23:04:56.798Z,20.65
2019-01-20T23:07:28.535Z,19.23
2019-01-20T23:10:04.024Z,21.37
2019-01-20T23:12:36.602Z,21.07
2019-01-20T23:15:09.217Z,21.50
2019-01-20T23:17:41.118Z,21.95
2019-01-20T23:20:15.104Z,21.10
2019-01-20T23:22:47.069Z,20.62
2019-01-20T23:25:18.914Z,20.20
2019-01-20T23:27:50.320Z,20.95
2019-01-20T23:30:22.154Z,21.52
2019-01-20T23:32:54.102Z,20.48
2019-01-20T23:35:25.666Z,19.57
2019-01-20T23:37:57.304Z,18.32
2019-01-20T23:40:28.640Z,17.98
2019-01-20T23:43:00.614Z,19.17
2019-01-20T23:45:32.394Z,19.75
2019-01-20T23:48:04.348Z,19.40
2019-01-20T23:50:35.373Z,17.70
2019-01-20T23:53:06.772Z,17.65
2019-01-20T23:55:37.897Z,17.10
2019-01-20T23:58:08.934Z,16.27
